Haines Airport Haines US
ICAO: PAHN
IATA:
Category: Medium
Scheduled Services:

Elevation: 15 ft
TransAlt. 18000 ft.

Airport Communications:
ASOS:135.75
ANCHORAGE CNTR:132.3
CTAF:122.9
JUNEAU RDO:122.6
TWEB:24.5

PAHN Zoom In..

Runways:

(A) RW 08 length 4000 ft width 100 ft
---- / hdg 86

(B) RW 26 length 4000 ft width 100 ft
---- / hdg 266

Location; PAHN
Day. 03 / Time. 01.54 Zulu
* Altimeter: 29.89
* Temperature: 12° c. 53.6°f.
* Wind from: 110° Speed 10 kn with Gusts up to 18 kn.
Dewpoint: 08° c.
Visibility: 10 Statute Miles.
Clouds: Few 1600 ft.
Clouds: Broken 7000 ft.

PAHN 030154Z AUTO 11010G18KT 070V140 10SM FEW016 BKN070 12/08 A2989 RMK SLP124 T01220078 TSNO VIA AUTODIAL


Wind From 110°
Speed 10 kn.

 
 
jpsmedia worldairports.se 2020   terms of use